sensor_id;sensor_type;location;lat;lon;timestamp;temperature;humidity
45283;DHT22;31023;44.994;1.796;2023-09-19T00:01:07;18.10;99.90
45283;DHT22;31023;44.994;1.796;2023-09-19T00:03:34;18.20;99.90
45283;DHT22;31023;44.994;1.796;2023-09-19T00:06:03;18.10;99.90
45283;DHT22;31023;44.994;1.796;2023-09-19T00:08:30;18.10;99.90
45283;DHT22;31023;44.994;1.796;2023-09-19T00:10:56;18.10;99.90
45283;DHT22;31023;44.994;1.796;2023-09-19T00:13:31;18.20;99.90
45283;DHT22;31023;44.994;1.796;2023-09-19T00:15:57;18.20;99.90
45283;DHT22;31023;44.994;1.796;2023-09-19T00:18:25;18.10;99.90
45283;DHT22;31023;44.994;1.796;2023-09-19T00:21:00;18.20;99.90
45283;DHT22;31023;44.994;1.796;2023-09-19T00:23:27;18.10;99.90
45283;DHT22;31023;44.994;1.796;2023-09-19T00:25:53;18.20;99.90
45283;DHT22;31023;44.994;1.796;2023-09-19T00:28:23;18.20;99.90
45283;DHT22;31023;44.994;1.796;2023-09-19T00:30:49;18.20;99.90
45283;DHT22;31023;44.994;1.796;2023-09-19T00:33:19;18.20;99.90
45283;DHT22;31023;44.994;1.796;2023-09-19T00:35:52;18.20;99.90
45283;DHT22;31023;44.994;1.796;2023-09-19T00:38:19;18.20;99.90
45283;DHT22;31023;44.994;1.796;2023-09-19T00:40:50;18.10;99.90
45283;DHT22;31023;44.994;1.796;2023-09-19T00:43:22;18.00;99.90
45283;DHT22;31023;44.994;1.796;2023-09-19T00:45:51;18.20;99.90
45283;DHT22;31023;44.994;1.796;2023-09-19T00:48:19;18.20;99.90
45283;DHT22;31023;44.994;1.796;2023-09-19T00:50:46;18.20;99.90
45283;DHT22;31023;44.994;1.796;2023-09-19T00:53:14;18.10;99.90
45283;DHT22;31023;44.994;1.796;2023-09-19T00:55:44;18.10;99.90
45283;DHT22;31023;44.994;1.796;2023-09-19T00:58:11;18.10;99.90
45283;DHT22;31023;44.994;1.796;2023-09-19T01:00:37;18.10;99.90
45283;DHT22;31023;44.994;1.796;2023-09-19T01:03:03;18.10;99.90
45283;DHT22;31023;44.994;1.796;2023-09-19T01:05:30;18.00;99.90
45283;DHT22;31023;44.994;1.796;2023-09-19T01:07:56;18.00;99.90
45283;DHT22;31023;44.994;1.796;2023-09-19T01:10:22;18.00;99.90
45283;DHT22;31023;44.994;1.796;2023-09-19T01:15:51;18.00;99.90
45283;DHT22;31023;44.994;1.796;2023-09-19T01:29:17;17.70;99.90
45283;DHT22;31023;44.994;1.796;2023-09-19T01:31:51;17.90;99.90
45283;DHT22;31023;44.994;1.796;2023-09-19T01:34:19;18.00;99.90
45283;DHT22;31023;44.994;1.796;2023-09-19T01:36:46;17.90;99.90
45283;DHT22;31023;44.994;1.796;2023-09-19T01:39:12;18.00;99.90
45283;DHT22;31023;44.994;1.796;2023-09-19T01:44:06;17.90;99.90
45283;DHT22;31023;44.994;1.796;2023-09-19T01:46:37;17.90;99.90
45283;DHT22;31023;44.994;1.796;2023-09-19T01:49:22;17.90;99.90
45283;DHT22;31023;44.994;1.796;2023-09-19T01:52:10;17.90;99.90
45283;DHT22;31023;44.994;1.796;2023-09-19T01:54:52;17.90;99.90
45283;DHT22;31023;44.994;1.796;2023-09-19T01:57:31;17.90;99.90
45283;DHT22;31023;44.994;1.796;2023-09-19T02:00:05;17.90;99.90
45283;DHT22;31023;44.994;1.796;2023-09-19T02:02:37;17.90;99.90
45283;DHT22;31023;44.994;1.796;2023-09-19T02:05:04;17.90;99.90
45283;DHT22;31023;44.994;1.796;2023-09-19T02:07:30;17.80;99.90
45283;DHT22;31023;44.994;1.796;2023-09-19T02:10:01;17.70;99.90
45283;DHT22;31023;44.994;1.796;2023-09-19T02:12:27;17.80;99.90
45283;DHT22;31023;44.994;1.796;2023-09-19T02:14:53;17.80;99.90
45283;DHT22;31023;44.994;1.796;2023-09-19T02:17:18;17.90;99.90
45283;DHT22;31023;44.994;1.796;2023-09-19T02:19:44;17.90;99.90
45283;DHT22;31023;44.994;1.796;2023-09-19T02:22:10;17.90;99.90
45283;DHT22;31023;44.994;1.796;2023-09-19T02:24:39;17.80;99.90
45283;DHT22;31023;44.994;1.796;2023-09-19T02:27:05;17.80;99.90
45283;DHT22;31023;44.994;1.796;2023-09-19T02:29:31;17.90;99.90
45283;DHT22;31023;44.994;1.796;2023-09-19T02:31:57;17.90;99.90
45283;DHT22;31023;44.994;1.796;2023-09-19T02:34:22;17.80;99.90
45283;DHT22;31023;44.994;1.796;2023-09-19T02:36:48;17.80;99.90
45283;DHT22;31023;44.994;1.796;2023-09-19T02:39:14;17.80;99.90
45283;DHT22;31023;44.994;1.796;2023-09-19T02:41:40;17.70;99.90
45283;DHT22;31023;44.994;1.796;2023-09-19T02:44:07;17.70;99.90
45283;DHT22;31023;44.994;1.796;2023-09-19T02:46:34;17.70;99.90
45283;DHT22;31023;44.994;1.796;2023-09-19T02:49:02;17.60;99.90
45283;DHT22;31023;44.994;1.796;2023-09-19T02:51:28;17.60;99.90
45283;DHT22;31023;44.994;1.796;2023-09-19T02:53:54;17.60;99.90
45283;DHT22;31023;44.994;1.796;2023-09-19T02:56:20;17.50;99.90
45283;DHT22;31023;44.994;1.796;2023-09-19T02:58:45;17.40;99.90
45283;DHT22;31023;44.994;1.796;2023-09-19T03:01:11;17.40;99.90
45283;DHT22;31023;44.994;1.796;2023-09-19T03:03:37;17.20;99.90
45283;DHT22;31023;44.994;1.796;2023-09-19T03:06:05;17.10;99.90
45283;DHT22;31023;44.994;1.796;2023-09-19T03:08:34;17.00;99.90
45283;DHT22;31023;44.994;1.796;2023-09-19T03:11:03;17.00;99.90
45283;DHT22;31023;44.994;1.796;2023-09-19T03:13:29;17.00;99.90
45283;DHT22;31023;44.994;1.796;2023-09-19T03:15:56;17.00;99.90
45283;DHT22;31023;44.994;1.796;2023-09-19T03:18:24;17.00;99.90
45283;DHT22;31023;44.994;1.796;2023-09-19T03:20:56;17.00;99.90
45283;DHT22;31023;44.994;1.796;2023-09-19T03:23:22;17.00;99.90
45283;DHT22;31023;44.994;1.796;2023-09-19T03:25:48;17.00;99.90
45283;DHT22;31023;44.994;1.796;2023-09-19T03:28:14;17.00;99.90
45283;DHT22;31023;44.994;1.796;2023-09-19T03:30:41;17.00;99.90
45283;DHT22;31023;44.994;1.796;2023-09-19T03:33:07;17.00;99.90
45283;DHT22;31023;44.994;1.796;2023-09-19T03:35:33;17.10;99.90
45283;DHT22;31023;44.994;1.796;2023-09-19T03:38:00;17.10;99.90
45283;DHT22;31023;44.994;1.796;2023-09-19T03:40:26;17.20;99.90
45283;DHT22;31023;44.994;1.796;2023-09-19T03:42:51;17.10;99.90
45283;DHT22;31023;44.994;1.796;2023-09-19T03:45:17;17.00;99.90
45283;DHT22;31023;44.994;1.796;2023-09-19T03:47:43;16.90;99.90
45283;DHT22;31023;44.994;1.796;2023-09-19T03:50:09;17.00;99.90
45283;DHT22;31023;44.994;1.796;2023-09-19T03:52:40;17.00;99.90
45283;DHT22;31023;44.994;1.796;2023-09-19T03:55:06;17.00;99.90
45283;DHT22;31023;44.994;1.796;2023-09-19T03:57:32;17.00;99.90
45283;DHT22;31023;44.994;1.796;2023-09-19T03:59:58;17.10;99.90
45283;DHT22;31023;44.994;1.796;2023-09-19T04:02:24;17.00;99.90
45283;DHT22;31023;44.994;1.796;2023-09-19T04:04:51;17.10;99.90
45283;DHT22;31023;44.994;1.796;2023-09-19T04:07:18;17.00;99.90
45283;DHT22;31023;44.994;1.796;2023-09-19T04:09:48;17.00;99.90
45283;DHT22;31023;44.994;1.796;2023-09-19T04:12:14;17.10;99.90
45283;DHT22;31023;44.994;1.796;2023-09-19T04:14:42;17.10;99.90
45283;DHT22;31023;44.994;1.796;2023-09-19T04:17:08;17.10;99.90
45283;DHT22;31023;44.994;1.796;2023-09-19T04:19:33;17.10;99.90
45283;DHT22;31023;44.994;1.796;2023-09-19T04:21:59;17.00;99.90
45283;DHT22;31023;44.994;1.796;2023-09-19T04:24:25;17.00;99.90
45283;DHT22;31023;44.994;1.796;2023-09-19T04:26:50;17.00;99.90
45283;DHT22;31023;44.994;1.796;2023-09-19T04:29:16;17.00;99.90
45283;DHT22;31023;44.994;1.796;2023-09-19T04:31:44;17.10;99.90
45283;DHT22;31023;44.994;1.796;2023-09-19T04:34:11;17.10;99.90
45283;DHT22;31023;44.994;1.796;2023-09-19T04:36:41;17.10;99.90
45283;DHT22;31023;44.994;1.796;2023-09-19T04:39:07;17.00;99.90
45283;DHT22;31023;44.994;1.796;2023-09-19T04:41:33;17.00;99.90
45283;DHT22;31023;44.994;1.796;2023-09-19T04:44:00;17.00;99.90
45283;DHT22;31023;44.994;1.796;2023-09-19T04:46:25;17.10;99.90
45283;DHT22;31023;44.994;1.796;2023-09-19T04:48:51;17.20;99.90
45283;DHT22;31023;44.994;1.796;2023-09-19T04:51:16;17.10;99.90
45283;DHT22;31023;44.994;1.796;2023-09-19T04:53:44;17.10;99.90
45283;DHT22;31023;44.994;1.796;2023-09-19T04:56:09;17.20;99.90
45283;DHT22;31023;44.994;1.796;2023-09-19T04:58:35;17.20;99.90
45283;DHT22;31023;44.994;1.796;2023-09-19T05:01:01;17.10;99.90
45283;DHT22;31023;44.994;1.796;2023-09-19T05:03:27;17.20;99.90
45283;DHT22;31023;44.994;1.796;2023-09-19T05:05:53;17.20;99.90
45283;DHT22;31023;44.994;1.796;2023-09-19T05:08:18;17.10;99.90
45283;DHT22;31023;44.994;1.796;2023-09-19T05:10:44;17.20;99.90
45283;DHT22;31023;44.994;1.796;2023-09-19T05:13:10;17.20;99.90
45283;DHT22;31023;44.994;1.796;2023-09-19T05:15:37;17.20;99.90
45283;DHT22;31023;44.994;1.796;2023-09-19T05:18:04;17.30;99.90
45283;DHT22;31023;44.994;1.796;2023-09-19T05:20:31;17.30;99.90
45283;DHT22;31023;44.994;1.796;2023-09-19T05:23:04;17.20;99.90
45283;DHT22;31023;44.994;1.796;2023-09-19T05:25:33;17.00;99.90
45283;DHT22;31023;44.994;1.796;2023-09-19T05:28:03;17.00;99.90
45283;DHT22;31023;44.994;1.796;2023-09-19T05:30:31;17.10;99.90
45283;DHT22;31023;44.994;1.796;2023-09-19T05:32:58;17.20;99.90
45283;DHT22;31023;44.994;1.796;2023-09-19T05:35:24;17.10;99.90
45283;DHT22;31023;44.994;1.796;2023-09-19T05:37:54;17.10;99.90
45283;DHT22;31023;44.994;1.796;2023-09-19T05:40:21;17.00;99.90
45283;DHT22;31023;44.994;1.796;2023-09-19T05:42:47;17.00;99.90
45283;DHT22;31023;44.994;1.796;2023-09-19T05:45:13;17.10;99.90
45283;DHT22;31023;44.994;1.796;2023-09-19T05:47:42;17.10;99.90
45283;DHT22;31023;44.994;1.796;2023-09-19T05:50:12;17.30;99.90
45283;DHT22;31023;44.994;1.796;2023-09-19T05:52:38;17.30;99.90
45283;DHT22;31023;44.994;1.796;2023-09-19T05:55:10;17.40;99.90
45283;DHT22;31023;44.994;1.796;2023-09-19T05:57:36;17.30;99.90
45283;DHT22;31023;44.994;1.796;2023-09-19T06:00:05;17.20;99.90
45283;DHT22;31023;44.994;1.796;2023-09-19T06:02:38;17.20;99.90
45283;DHT22;31023;44.994;1.796;2023-09-19T06:05:06;17.20;99.90
45283;DHT22;31023;44.994;1.796;2023-09-19T06:07:35;17.20;99.90
45283;DHT22;31023;44.994;1.796;2023-09-19T06:10:06;17.10;99.90
45283;DHT22;31023;44.994;1.796;2023-09-19T06:12:33;17.10;99.90
45283;DHT22;31023;44.994;1.796;2023-09-19T06:15:04;17.30;99.90
45283;DHT22;31023;44.994;1.796;2023-09-19T06:17:31;17.30;99.90
45283;DHT22;31023;44.994;1.796;2023-09-19T06:19:57;18.20;99.90
45283;DHT22;31023;44.994;1.796;2023-09-19T06:22:22;17.90;99.90
45283;DHT22;31023;44.994;1.796;2023-09-19T06:24:49;17.50;99.90
45283;DHT22;31023;44.994;1.796;2023-09-19T06:27:15;18.10;99.90
45283;DHT22;31023;44.994;1.796;2023-09-19T06:29:41;17.90;99.90
45283;DHT22;31023;44.994;1.796;2023-09-19T06:32:10;17.90;99.90
45283;DHT22;31023;44.994;1.796;2023-09-19T06:34:37;17.80;99.90
45283;DHT22;31023;44.994;1.796;2023-09-19T06:37:08;18.00;99.90
45283;DHT22;31023;44.994;1.796;2023-09-19T06:39:34;18.30;99.90
45283;DHT22;31023;44.994;1.796;2023-09-19T06:42:00;18.40;99.90
45283;DHT22;31023;44.994;1.796;2023-09-19T06:44:27;18.60;99.90
45283;DHT22;31023;44.994;1.796;2023-09-19T06:46:55;18.20;99.90
45283;DHT22;31023;44.994;1.796;2023-09-19T06:49:20;18.00;99.90
45283;DHT22;31023;44.994;1.796;2023-09-19T06:51:46;17.80;99.90
45283;DHT22;31023;44.994;1.796;2023-09-19T06:54:12;17.80;99.90
45283;DHT22;31023;44.994;1.796;2023-09-19T06:56:37;17.80;99.90
45283;DHT22;31023;44.994;1.796;2023-09-19T06:59:03;18.00;99.90
45283;DHT22;31023;44.994;1.796;2023-09-19T07:01:31;17.90;99.90
45283;DHT22;31023;44.994;1.796;2023-09-19T07:03:57;17.80;99.90
45283;DHT22;31023;44.994;1.796;2023-09-19T07:06:23;17.60;99.90
45283;DHT22;31023;44.994;1.796;2023-09-19T07:08:49;17.50;99.90
45283;DHT22;31023;44.994;1.796;2023-09-19T07:11:15;17.50;99.90
45283;DHT22;31023;44.994;1.796;2023-09-19T07:13:41;17.30;99.90
45283;DHT22;31023;44.994;1.796;2023-09-19T07:16:07;17.30;99.90
45283;DHT22;31023;44.994;1.796;2023-09-19T07:18:35;17.40;99.90
45283;DHT22;31023;44.994;1.796;2023-09-19T07:21:02;17.40;99.90
45283;DHT22;31023;44.994;1.796;2023-09-19T07:23:30;17.40;99.90
45283;DHT22;31023;44.994;1.796;2023-09-19T07:26:00;17.70;99.90
45283;DHT22;31023;44.994;1.796;2023-09-19T07:28:26;17.70;99.90
45283;DHT22;31023;44.994;1.796;2023-09-19T07:30:53;18.20;99.90
45283;DHT22;31023;44.994;1.796;2023-09-19T07:33:19;18.20;99.90
45283;DHT22;31023;44.994;1.796;2023-09-19T07:35:46;18.10;99.90
45283;DHT22;31023;44.994;1.796;2023-09-19T07:38:12;18.30;99.90
45283;DHT22;31023;44.994;1.796;2023-09-19T07:40:38;18.50;99.90
45283;DHT22;31023;44.994;1.796;2023-09-19T07:43:04;18.80;99.90
45283;DHT22;31023;44.994;1.796;2023-09-19T07:45:31;18.90;99.90
45283;DHT22;31023;44.994;1.796;2023-09-19T07:47:56;19.20;99.90
45283;DHT22;31023;44.994;1.796;2023-09-19T07:50:23;19.40;99.90
45283;DHT22;31023;44.994;1.796;2023-09-19T07:52:49;19.50;99.90
45283;DHT22;31023;44.994;1.796;2023-09-19T07:55:22;19.70;99.90
45283;DHT22;31023;44.994;1.796;2023-09-19T07:57:54;19.70;99.90
45283;DHT22;31023;44.994;1.796;2023-09-19T08:00:20;19.90;99.90
45283;DHT22;31023;44.994;1.796;2023-09-19T08:02:46;20.20;99.90
45283;DHT22;31023;44.994;1.796;2023-09-19T08:05:13;20.40;99.90
45283;DHT22;31023;44.994;1.796;2023-09-19T08:07:42;24.40;99.90
45283;DHT22;31023;44.994;1.796;2023-09-19T08:10:09;23.50;99.90
45283;DHT22;31023;44.994;1.796;2023-09-19T08:12:43;22.30;99.90
45283;DHT22;31023;44.994;1.796;2023-09-19T08:15:13;21.30;99.90
45283;DHT22;31023;44.994;1.796;2023-09-19T08:17:39;20.60;99.90
45283;DHT22;31023;44.994;1.796;2023-09-19T08:20:05;20.40;99.90
45283;DHT22;31023;44.994;1.796;2023-09-19T08:22:31;20.30;99.90
45283;DHT22;31023;44.994;1.796;2023-09-19T08:25:00;21.10;99.90
45283;DHT22;31023;44.994;1.796;2023-09-19T08:27:30;22.40;99.90
45283;DHT22;31023;44.994;1.796;2023-09-19T08:29:56;24.50;98.40
45283;DHT22;31023;44.994;1.796;2023-09-19T08:32:22;22.90;99.10
45283;DHT22;31023;44.994;1.796;2023-09-19T08:34:50;24.70;97.50
45283;DHT22;31023;44.994;1.796;2023-09-19T08:37:15;23.70;97.20
45283;DHT22;31023;44.994;1.796;2023-09-19T08:39:42;24.10;97.30
45283;DHT22;31023;44.994;1.796;2023-09-19T08:42:08;24.80;95.10
45283;DHT22;31023;44.994;1.796;2023-09-19T08:44:37;23.60;96.40
45283;DHT22;31023;44.994;1.796;2023-09-19T08:47:15;23.00;97.90
45283;DHT22;31023;44.994;1.796;2023-09-19T08:52:22;23.70;97.60
45283;DHT22;31023;44.994;1.796;2023-09-19T08:54:52;23.60;96.20
45283;DHT22;31023;44.994;1.796;2023-09-19T08:57:20;27.30;92.50
45283;DHT22;31023;44.994;1.796;2023-09-19T08:59:48;29.40;86.70
45283;DHT22;31023;44.994;1.796;2023-09-19T09:02:17;26.70;87.10
45283;DHT22;31023;44.994;1.796;2023-09-19T09:04:48;23.70;92.70
45283;DHT22;31023;44.994;1.796;2023-09-19T09:07:15;22.50;96.10
45283;DHT22;31023;44.994;1.796;2023-09-19T09:09:42;22.70;97.60
45283;DHT22;31023;44.994;1.796;2023-09-19T09:12:13;25.10;93.70
45283;DHT22;31023;44.994;1.796;2023-09-19T09:14:40;23.50;94.00
45283;DHT22;31023;44.994;1.796;2023-09-19T09:17:06;22.10;96.70
45283;DHT22;31023;44.994;1.796;2023-09-19T09:19:32;21.30;98.90
45283;DHT22;31023;44.994;1.796;2023-09-19T09:22:11;20.80;99.90
45283;DHT22;31023;44.994;1.796;2023-09-19T09:24:37;20.40;99.90
45283;DHT22;31023;44.994;1.796;2023-09-19T09:27:16;21.80;99.90
45283;DHT22;31023;44.994;1.796;2023-09-19T09:29:48;25.50;94.80
45283;DHT22;31023;44.994;1.796;2023-09-19T09:32:22;26.80;93.10
45283;DHT22;31023;44.994;1.796;2023-09-19T09:34:56;27.30;83.70
45283;DHT22;31023;44.994;1.796;2023-09-19T09:37:23;27.90;83.20
45283;DHT22;31023;44.994;1.796;2023-09-19T09:39:58;28.80;78.80
45283;DHT22;31023;44.994;1.796;2023-09-19T09:42:36;29.20;78.30
45283;DHT22;31023;44.994;1.796;2023-09-19T09:45:20;29.50;74.10
45283;DHT22;31023;44.994;1.796;2023-09-19T09:48:01;28.90;78.80
45283;DHT22;31023;44.994;1.796;2023-09-19T09:50:46;28.70;76.50
45283;DHT22;31023;44.994;1.796;2023-09-19T09:53:29;28.60;75.40
45283;DHT22;31023;44.994;1.796;2023-09-19T09:56:04;28.00;75.60
45283;DHT22;31023;44.994;1.796;2023-09-19T09:58:37;27.60;76.30
45283;DHT22;31023;44.994;1.796;2023-09-19T10:01:04;27.00;79.10
45283;DHT22;31023;44.994;1.796;2023-09-19T10:03:40;25.90;78.80
45283;DHT22;31023;44.994;1.796;2023-09-19T10:06:11;25.90;82.00
45283;DHT22;31023;44.994;1.796;2023-09-19T10:09:03;25.30;85.10
45283;DHT22;31023;44.994;1.796;2023-09-19T10:11:40;24.50;83.30
45283;DHT22;31023;44.994;1.796;2023-09-19T10:14:10;24.10;86.40
45283;DHT22;31023;44.994;1.796;2023-09-19T10:16:49;25.20;84.30
45283;DHT22;31023;44.994;1.796;2023-09-19T10:22:02;25.30;81.00
45283;DHT22;31023;44.994;1.796;2023-09-19T10:24:30;25.30;81.50
45283;DHT22;31023;44.994;1.796;2023-09-19T10:26:57;25.20;84.00
45283;DHT22;31023;44.994;1.796;2023-09-19T10:29:23;24.20;85.10
45283;DHT22;31023;44.994;1.796;2023-09-19T10:31:52;23.90;87.40
45283;DHT22;31023;44.994;1.796;2023-09-19T10:34:19;23.70;86.90
45283;DHT22;31023;44.994;1.796;2023-09-19T10:36:46;22.80;90.10
45283;DHT22;31023;44.994;1.796;2023-09-19T10:39:16;22.80;90.40
45283;DHT22;31023;44.994;1.796;2023-09-19T10:41:53;23.00;90.90
45283;DHT22;31023;44.994;1.796;2023-09-19T10:44:23;23.80;92.00
45283;DHT22;31023;44.994;1.796;2023-09-19T10:46:53;23.60;85.20
45283;DHT22;31023;44.994;1.796;2023-09-19T10:49:22;23.80;87.80
45283;DHT22;31023;44.994;1.796;2023-09-19T10:51:50;24.10;87.40
45283;DHT22;31023;44.994;1.796;2023-09-19T10:54:22;24.00;86.00
45283;DHT22;31023;44.994;1.796;2023-09-19T10:56:49;24.10;89.50
45283;DHT22;31023;44.994;1.796;2023-09-19T10:59:21;24.00;85.00
45283;DHT22;31023;44.994;1.796;2023-09-19T11:01:55;24.00;85.30
45283;DHT22;31023;44.994;1.796;2023-09-19T11:04:33;24.00;87.80
45283;DHT22;31023;44.994;1.796;2023-09-19T11:07:04;23.80;88.80
45283;DHT22;31023;44.994;1.796;2023-09-19T11:09:56;24.00;86.20
45283;DHT22;31023;44.994;1.796;2023-09-19T11:15:07;23.30;82.70
45283;DHT22;31023;44.994;1.796;2023-09-19T11:17:39;23.80;84.10
45283;DHT22;31023;44.994;1.796;2023-09-19T11:30:38;23.60;84.80
45283;DHT22;31023;44.994;1.796;2023-09-19T11:33:30;23.40;86.70
45283;DHT22;31023;44.994;1.796;2023-09-19T11:36:12;22.80;87.50
45283;DHT22;31023;44.994;1.796;2023-09-19T11:49:30;23.10;89.30
45283;DHT22;31023;44.994;1.796;2023-09-19T11:52:00;22.90;86.80
45283;DHT22;31023;44.994;1.796;2023-09-19T11:54:27;23.00;87.60
45283;DHT22;31023;44.994;1.796;2023-09-19T11:56:58;23.10;87.20
45283;DHT22;31023;44.994;1.796;2023-09-19T11:59:28;23.00;89.30
45283;DHT22;31023;44.994;1.796;2023-09-19T12:02:01;23.10;86.40
45283;DHT22;31023;44.994;1.796;2023-09-19T12:04:47;23.20;87.70
45283;DHT22;31023;44.994;1.796;2023-09-19T12:07:15;23.10;88.30
45283;DHT22;31023;44.994;1.796;2023-09-19T12:09:46;22.90;86.40
45283;DHT22;31023;44.994;1.796;2023-09-19T12:12:23;23.10;87.10
45283;DHT22;31023;44.994;1.796;2023-09-19T12:14:53;23.00;87.40
45283;DHT22;31023;44.994;1.796;2023-09-19T12:17:18;22.80;86.50
45283;DHT22;31023;44.994;1.796;2023-09-19T12:19:52;22.80;81.90
45283;DHT22;31023;44.994;1.796;2023-09-19T12:22:18;23.00;81.00
45283;DHT22;31023;44.994;1.796;2023-09-19T12:24:46;23.10;84.40
45283;DHT22;31023;44.994;1.796;2023-09-19T12:27:12;23.00;82.40
45283;DHT22;31023;44.994;1.796;2023-09-19T12:29:49;23.00;83.30
45283;DHT22;31023;44.994;1.796;2023-09-19T12:32:15;23.10;82.60
45283;DHT22;31023;44.994;1.796;2023-09-19T12:34:53;22.80;79.60
45283;DHT22;31023;44.994;1.796;2023-09-19T12:37:20;22.70;82.10
45283;DHT22;31023;44.994;1.796;2023-09-19T12:39:53;22.90;80.30
45283;DHT22;31023;44.994;1.796;2023-09-19T12:42:25;22.80;76.00
45283;DHT22;31023;44.994;1.796;2023-09-19T12:44:57;22.90;80.80
45283;DHT22;31023;44.994;1.796;2023-09-19T12:47:27;22.90;81.30
45283;DHT22;31023;44.994;1.796;2023-09-19T12:50:09;22.90;81.20
45283;DHT22;31023;44.994;1.796;2023-09-19T12:52:52;22.70;78.00
45283;DHT22;31023;44.994;1.796;2023-09-19T12:55:26;22.90;77.90
45283;DHT22;31023;44.994;1.796;2023-09-19T12:58:11;22.80;71.80
45283;DHT22;31023;44.994;1.796;2023-09-19T13:00:42;22.60;71.90
45283;DHT22;31023;44.994;1.796;2023-09-19T13:06:03;22.70;73.20
45283;DHT22;31023;44.994;1.796;2023-09-19T13:08:30;22.60;69.30
45283;DHT22;31023;44.994;1.796;2023-09-19T13:13:51;22.80;71.20
45283;DHT22;31023;44.994;1.796;2023-09-19T13:16:21;22.60;66.90
45283;DHT22;31023;44.994;1.796;2023-09-19T13:18:53;22.70;65.80
45283;DHT22;31023;44.994;1.796;2023-09-19T13:21:32;22.70;66.50
45283;DHT22;31023;44.994;1.796;2023-09-19T13:24:22;22.90;69.60
45283;DHT22;31023;44.994;1.796;2023-09-19T13:26:48;23.10;75.50
45283;DHT22;31023;44.994;1.796;2023-09-19T13:29:14;23.20;76.00
45283;DHT22;31023;44.994;1.796;2023-09-19T13:31:49;23.00;72.00
45283;DHT22;31023;44.994;1.796;2023-09-19T13:34:15;23.00;73.90
45283;DHT22;31023;44.994;1.796;2023-09-19T13:36:43;22.80;73.90
45283;DHT22;31023;44.994;1.796;2023-09-19T13:39:09;22.60;74.00
45283;DHT22;31023;44.994;1.796;2023-09-19T13:41:35;22.80;75.60
45283;DHT22;31023;44.994;1.796;2023-09-19T13:44:03;22.90;77.30
45283;DHT22;31023;44.994;1.796;2023-09-19T13:46:30;22.90;76.00
45283;DHT22;31023;44.994;1.796;2023-09-19T13:48:58;23.00;77.70
45283;DHT22;31023;44.994;1.796;2023-09-19T13:51:26;22.90;75.70
45283;DHT22;31023;44.994;1.796;2023-09-19T13:53:51;22.90;74.20
45283;DHT22;31023;44.994;1.796;2023-09-19T13:56:17;22.90;73.00
45283;DHT22;31023;44.994;1.796;2023-09-19T13:58:43;23.00;72.80
45283;DHT22;31023;44.994;1.796;2023-09-19T14:01:08;23.20;72.10
45283;DHT22;31023;44.994;1.796;2023-09-19T14:03:42;23.10;71.20
45283;DHT22;31023;44.994;1.796;2023-09-19T14:06:16;22.80;68.30
45283;DHT22;31023;44.994;1.796;2023-09-19T14:08:42;23.20;77.10
45283;DHT22;31023;44.994;1.796;2023-09-19T14:11:08;23.00;73.50
45283;DHT22;31023;44.994;1.796;2023-09-19T14:13:34;22.80;71.30
45283;DHT22;31023;44.994;1.796;2023-09-19T14:16:07;22.60;71.70
45283;DHT22;31023;44.994;1.796;2023-09-19T14:18:35;22.50;75.30
45283;DHT22;31023;44.994;1.796;2023-09-19T14:21:04;22.50;76.40
45283;DHT22;31023;44.994;1.796;2023-09-19T14:23:40;22.60;77.10
45283;DHT22;31023;44.994;1.796;2023-09-19T14:26:08;22.40;76.00
45283;DHT22;31023;44.994;1.796;2023-09-19T14:28:34;22.40;73.20
45283;DHT22;31023;44.994;1.796;2023-09-19T14:31:05;22.30;71.90
45283;DHT22;31023;44.994;1.796;2023-09-19T14:33:31;22.20;74.70
45283;DHT22;31023;44.994;1.796;2023-09-19T14:35:57;22.20;72.80
45283;DHT22;31023;44.994;1.796;2023-09-19T14:38:23;22.10;69.60
45283;DHT22;31023;44.994;1.796;2023-09-19T14:40:48;21.90;67.10
45283;DHT22;31023;44.994;1.796;2023-09-19T14:43:15;22.00;72.50
45283;DHT22;31023;44.994;1.796;2023-09-19T14:45:41;22.00;71.60
45283;DHT22;31023;44.994;1.796;2023-09-19T14:48:07;21.90;72.50
45283;DHT22;31023;44.994;1.796;2023-09-19T14:50:33;21.90;73.10
45283;DHT22;31023;44.994;1.796;2023-09-19T14:52:58;21.80;70.10
45283;DHT22;31023;44.994;1.796;2023-09-19T14:55:27;21.70;71.90
45283;DHT22;31023;44.994;1.796;2023-09-19T14:57:55;21.70;73.40
45283;DHT22;31023;44.994;1.796;2023-09-19T15:00:22;21.70;71.70
45283;DHT22;31023;44.994;1.796;2023-09-19T15:02:49;21.60;69.40
45283;DHT22;31023;44.994;1.796;2023-09-19T15:05:16;21.50;72.90
45283;DHT22;31023;44.994;1.796;2023-09-19T15:07:42;21.50;71.50
45283;DHT22;31023;44.994;1.796;2023-09-19T15:10:07;21.40;69.50
45283;DHT22;31023;44.994;1.796;2023-09-19T15:12:36;21.30;65.30
45283;DHT22;31023;44.994;1.796;2023-09-19T15:15:04;21.30;66.20
45283;DHT22;31023;44.994;1.796;2023-09-19T15:17:33;21.40;68.10
45283;DHT22;31023;44.994;1.796;2023-09-19T15:19:59;21.30;66.60
45283;DHT22;31023;44.994;1.796;2023-09-19T15:22:25;21.30;65.70
45283;DHT22;31023;44.994;1.796;2023-09-19T15:24:52;21.20;65.00
45283;DHT22;31023;44.994;1.796;2023-09-19T15:27:17;21.20;64.30
45283;DHT22;31023;44.994;1.796;2023-09-19T15:29:46;21.20;66.80
45283;DHT22;31023;44.994;1.796;2023-09-19T15:32:13;21.20;70.60
45283;DHT22;31023;44.994;1.796;2023-09-19T15:34:38;21.20;67.70
45283;DHT22;31023;44.994;1.796;2023-09-19T15:37:04;21.20;69.90
45283;DHT22;31023;44.994;1.796;2023-09-19T15:39:30;21.10;70.60
45283;DHT22;31023;44.994;1.796;2023-09-19T15:41:59;21.10;69.70
45283;DHT22;31023;44.994;1.796;2023-09-19T15:44:24;21.00;66.40
45283;DHT22;31023;44.994;1.796;2023-09-19T15:46:52;21.00;66.00
45283;DHT22;31023;44.994;1.796;2023-09-19T15:49:18;21.10;68.00
45283;DHT22;31023;44.994;1.796;2023-09-19T15:51:44;21.00;68.80
45283;DHT22;31023;44.994;1.796;2023-09-19T15:54:12;20.90;69.20
45283;DHT22;31023;44.994;1.796;2023-09-19T15:56:44;20.90;69.10
45283;DHT22;31023;44.994;1.796;2023-09-19T15:59:11;20.80;70.30
45283;DHT22;31023;44.994;1.796;2023-09-19T16:01:44;20.80;69.70
45283;DHT22;31023;44.994;1.796;2023-09-19T16:04:10;20.80;70.40
45283;DHT22;31023;44.994;1.796;2023-09-19T16:06:38;20.80;71.70
45283;DHT22;31023;44.994;1.796;2023-09-19T16:09:04;20.80;70.70
45283;DHT22;31023;44.994;1.796;2023-09-19T16:11:32;20.70;72.60
45283;DHT22;31023;44.994;1.796;2023-09-19T16:13:59;20.70;73.00
45283;DHT22;31023;44.994;1.796;2023-09-19T16:16:27;20.70;71.90
45283;DHT22;31023;44.994;1.796;2023-09-19T16:19:02;20.70;67.80
45283;DHT22;31023;44.994;1.796;2023-09-19T16:21:33;20.70;69.00
45283;DHT22;31023;44.994;1.796;2023-09-19T16:24:01;20.50;71.10
45283;DHT22;31023;44.994;1.796;2023-09-19T16:26:28;20.50;69.00
45283;DHT22;31023;44.994;1.796;2023-09-19T16:28:56;20.40;70.20
45283;DHT22;31023;44.994;1.796;2023-09-19T16:31:26;20.40;71.80